Time;durP1;ratioP1;P1;durP2;ratioP2;P2;SDS_P1;SDS_P2;PMS_P1;PMS_P2;Temp;Humidity;BMP_temperature;BMP_pressure;BME280_temperature;BME280_humidity;BME280_pressure;Samples;Min_cycle;Max_cycle;Signal;HPM_P1;HPM_P2
2023/11/21 00:01:18;;;;;;;9.77;6.05;;;6.20;99.90;;;;;;5072175;28;20458;-76
2023/11/21 00:03:44;;;;;;;10.57;6.13;;;6.10;99.90;;;;;;5070736;28;20106;-76
2023/11/21 00:06:09;;;;;;;11.23;6.15;;;6.00;99.90;;;;;;5070359;28;20637;-77
2023/11/21 00:08:36;;;;;;;10.90;6.65;;;6.00;99.90;;;;;;5074348;28;20143;-77
2023/11/21 00:11:05;;;;;;;11.30;6.80;;;6.00;99.90;;;;;;5073046;28;20185;-76
2023/11/21 00:13:31;;;;;;;8.65;5.72;;;6.00;99.90;;;;;;5075699;28;20035;-76
2023/11/21 00:15:57;;;;;;;11.50;5.40;;;6.00;99.90;;;;;;5072002;28;20524;-76
2023/11/21 00:18:23;;;;;;;11.80;6.55;;;6.10;99.90;;;;;;5077208;28;20036;-76
2023/11/21 00:20:49;;;;;;;10.98;6.60;;;6.00;99.90;;;;;;5075696;28;20038;-77
2023/11/21 00:23:14;;;;;;;11.25;7.03;;;5.90;99.90;;;;;;5074356;28;20047;-76
2023/11/21 00:25:40;;;;;;;8.88;5.55;;;6.00;99.90;;;;;;5072233;28;20043;-76
2023/11/21 00:28:07;;;;;;;10.35;6.22;;;6.10;99.90;;;;;;5074127;28;20040;-77
2023/11/21 00:30:33;;;;;;;9.05;5.47;;;6.20;99.90;;;;;;5074189;28;20036;-76
2023/11/21 00:32:58;;;;;;;12.38;6.10;;;6.20;99.90;;;;;;5074293;28;20036;-76
2023/11/21 00:35:24;;;;;;;9.23;5.72;;;6.10;99.90;;;;;;5075339;28;20032;-76
2023/11/21 00:37:50;;;;;;;13.98;6.00;;;5.90;99.90;;;;;;5074193;28;20039;-76
2023/11/21 00:40:19;;;;;;;9.07;5.70;;;6.00;99.90;;;;;;5074724;28;20044;-76
2023/11/21 00:42:45;;;;;;;9.98;6.45;;;6.20;99.90;;;;;;5075763;28;20067;-76
2023/11/21 00:45:11;;;;;;;11.45;6.20;;;6.30;99.90;;;;;;5073753;28;20162;-76
2023/11/21 00:47:38;;;;;;;9.13;5.80;;;6.30;99.90;;;;;;5074395;28;20118;-76
2023/11/21 00:50:06;;;;;;;8.90;5.88;;;6.30;99.90;;;;;;5074385;28;20036;-76
2023/11/21 00:52:31;;;;;;;9.80;6.53;;;6.30;99.90;;;;;;5074598;28;20482;-76
2023/11/21 00:54:59;;;;;;;9.77;6.07;;;6.20;99.90;;;;;;5073876;28;20108;-76
2023/11/21 00:57:26;;;;;;;11.23;6.32;;;6.00;99.90;;;;;;5075653;28;20097;-76
2023/11/21 00:59:51;;;;;;;10.00;6.43;;;6.00;99.90;;;;;;5074725;28;20126;-76
2023/11/21 01:02:17;;;;;;;8.65;5.68;;;6.00;99.90;;;;;;5073039;28;20367;-76
2023/11/21 01:04:43;;;;;;;9.02;5.35;;;5.90;99.90;;;;;;5075075;28;20456;-76
2023/11/21 01:07:09;;;;;;;9.10;5.45;;;5.90;99.90;;;;;;5074072;28;20028;-76
2023/11/21 01:09:35;;;;;;;8.43;5.68;;;5.70;99.90;;;;;;5073592;28;20036;-76
2023/11/21 01:12:00;;;;;;;8.35;6.05;;;5.60;99.90;;;;;;5074977;28;20036;-76
2023/11/21 01:14:27;;;;;;;11.20;6.50;;;5.60;99.90;;;;;;5073713;28;20119;-76
2023/11/21 01:16:53;;;;;;;10.52;6.47;;;5.60;99.90;;;;;;5073709;28;20036;-76
2023/11/21 01:19:18;;;;;;;8.35;5.55;;;5.70;99.90;;;;;;5075058;28;20048;-76
2023/11/21 01:21:44;;;;;;;9.25;5.45;;;5.70;99.90;;;;;;5074195;28;20032;-76
2023/11/21 01:24:10;;;;;;;10.77;5.80;;;5.60;99.90;;;;;;5073082;28;20103;-76
2023/11/21 01:26:36;;;;;;;10.27;6.38;;;5.50;99.90;;;;;;5075663;28;20096;-76
2023/11/21 01:29:01;;;;;;;11.30;6.40;;;5.50;99.90;;;;;;5073407;28;20040;-76
2023/11/21 01:31:29;;;;;;;10.30;6.50;;;5.40;99.90;;;;;;5073101;28;20485;-76
2023/11/21 01:33:55;;;;;;;8.43;5.50;;;5.40;99.90;;;;;;5073997;28;20527;-76
2023/11/21 01:36:21;;;;;;;10.45;5.35;;;5.30;99.90;;;;;;5071708;28;20039;-76
2023/11/21 01:38:48;;;;;;;12.40;6.30;;;5.40;99.90;;;;;;5073116;28;20036;-76
2023/11/21 01:41:14;;;;;;;11.13;6.03;;;5.40;99.90;;;;;;5075391;28;20093;-76
2023/11/21 01:43:41;;;;;;;10.30;6.63;;;5.40;99.90;;;;;;5072900;28;20047;-76
2023/11/21 01:46:08;;;;;;;11.40;6.55;;;5.60;99.90;;;;;;5073054;28;20036;-76
2023/11/21 01:48:34;;;;;;;13.10;6.95;;;5.60;99.90;;;;;;5074103;28;20036;-76
2023/11/21 01:51:01;;;;;;;13.15;7.55;;;5.70;99.90;;;;;;5073207;28;20085;-76
2023/11/21 01:53:28;;;;;;;12.18;7.07;;;5.80;99.90;;;;;;5072446;28;20035;-76
2023/11/21 01:55:56;;;;;;;11.80;7.38;;;5.80;99.90;;;;;;5074008;28;20539;-76
2023/11/21 01:58:22;;;;;;;11.02;6.85;;;5.80;99.90;;;;;;5073304;28;20205;-76
2023/11/21 02:00:50;;;;;;;13.60;7.25;;;5.60;99.90;;;;;;5072385;28;20573;-76
2023/11/21 02:03:16;;;;;;;11.43;6.68;;;5.50;99.90;;;;;;5072743;28;20051;-77
2023/11/21 02:05:42;;;;;;;11.55;7.10;;;5.40;99.90;;;;;;5074055;28;20454;-76
2023/11/21 02:08:09;;;;;;;11.52;8.18;;;5.40;99.90;;;;;;5072984;28;20036;-76
2023/11/21 02:10:36;;;;;;;10.73;6.93;;;5.40;99.90;;;;;;5073006;28;20032;-76
2023/11/21 02:13:02;;;;;;;10.35;5.93;;;5.30;99.90;;;;;;5073723;28;20039;-76
2023/11/21 02:15:28;;;;;;;15.88;7.25;;;5.30;99.90;;;;;;5072773;28;20039;-76
2023/11/21 02:17:54;;;;;;;12.00;6.82;;;5.40;99.90;;;;;;5073361;28;20498;-76
2023/11/21 02:20:22;;;;;;;12.10;6.45;;;5.50;99.90;;;;;;5074427;28;20094;-76
2023/11/21 02:22:57;;;;;;;9.30;6.20;;;5.40;99.90;;;;;;5073057;28;20028;-76
2023/11/21 02:25:33;;;;;;;12.75;7.03;;;5.50;99.90;;;;;;5071937;28;20043;-76
2023/11/21 02:28:02;;;;;;;10.23;6.35;;;5.50;99.90;;;;;;5072844;28;20039;-76
2023/11/21 02:30:28;;;;;;;11.63;6.47;;;5.50;99.90;;;;;;5074139;28;20031;-76
2023/11/21 02:32:56;;;;;;;11.55;7.75;;;5.40;99.90;;;;;;5072285;28;20024;-76
2023/11/21 02:35:22;;;;;;;10.63;7.25;;;5.40;99.90;;;;;;5072915;28;20039;-76
2023/11/21 02:37:48;;;;;;;11.95;6.93;;;5.30;99.90;;;;;;5074157;28;20028;-76
2023/11/21 02:40:17;;;;;;;11.00;6.93;;;5.20;99.90;;;;;;5073547;28;20040;-76
2023/11/21 02:42:44;;;;;;;12.45;7.60;;;5.30;99.90;;;;;;5072008;28;20116;-76
2023/11/21 02:45:12;;;;;;;12.20;8.13;;;5.30;99.90;;;;;;5074631;28;20075;-76
2023/11/21 02:47:41;;;;;;;11.52;6.93;;;5.20;99.90;;;;;;5077127;28;20481;-76
2023/11/21 02:50:10;;;;;;;10.13;7.13;;;5.10;99.90;;;;;;5077280;28;20700;-76
2023/11/21 02:52:36;;;;;;;10.45;6.70;;;5.00;99.90;;;;;;5076283;28;20127;-77
2023/11/21 02:55:02;;;;;;;12.57;8.00;;;4.70;99.90;;;;;;5077587;28;20063;-76
2023/11/21 02:57:28;;;;;;;10.98;6.78;;;4.80;99.90;;;;;;5076656;28;20071;-76
2023/11/21 02:59:54;;;;;;;10.02;6.07;;;4.60;99.90;;;;;;5077086;28;20123;-76
2023/11/21 03:02:20;;;;;;;12.98;7.88;;;4.50;99.90;;;;;;5077958;28;20386;-77
2023/11/21 03:04:48;;;;;;;12.45;7.28;;;4.60;99.90;;;;;;5078562;28;20032;-76
2023/11/21 03:07:13;;;;;;;12.18;7.32;;;4.60;99.90;;;;;;5076654;28;20078;-76
2023/11/21 03:09:39;;;;;;;11.38;6.95;;;4.90;99.90;;;;;;5076785;28;20122;-76
2023/11/21 03:12:05;;;;;;;12.52;6.43;;;4.80;99.90;;;;;;5077611;28;20070;-76
2023/11/21 03:14:31;;;;;;;12.95;7.82;;;4.70;99.90;;;;;;5075964;28;20339;-76
2023/11/21 03:16:57;;;;;;;12.43;7.07;;;4.80;99.90;;;;;;5077821;28;20038;-76
2023/11/21 03:19:23;;;;;;;12.90;7.30;;;4.80;99.90;;;;;;5077255;28;20654;-76
2023/11/21 03:21:49;;;;;;;10.73;7.80;;;4.80;99.90;;;;;;5076506;28;20032;-76
2023/11/21 03:24:17;;;;;;;12.00;7.05;;;4.70;99.90;;;;;;5076386;28;20810;-76
2023/11/21 03:26:44;;;;;;;11.43;6.00;;;4.80;99.90;;;;;;5077168;28;20040;-76
2023/11/21 03:29:10;;;;;;;13.02;6.90;;;4.70;99.90;;;;;;5076274;28;20031;-76
2023/11/21 03:31:36;;;;;;;12.88;7.60;;;4.60;99.90;;;;;;5076760;28;20036;-76
2023/11/21 03:34:01;;;;;;;11.98;6.88;;;4.60;99.90;;;;;;5077104;28;20503;-76
2023/11/21 03:36:27;;;;;;;9.43;6.30;;;4.70;99.90;;;;;;5076133;28;20039;-76
2023/11/21 03:38:53;;;;;;;11.75;6.65;;;4.80;99.90;;;;;;5077179;28;20366;-76
2023/11/21 03:41:19;;;;;;;12.80;8.75;;;4.80;99.90;;;;;;5076475;28;20028;-76
2023/11/21 03:43:44;;;;;;;15.77;7.45;;;4.80;99.90;;;;;;5075472;28;20375;-76
2023/11/21 03:46:10;;;;;;;11.30;8.45;;;4.60;99.90;;;;;;5076399;28;20115;-75
2023/11/21 03:48:36;;;;;;;12.10;7.53;;;4.60;99.90;;;;;;5075726;28;20032;-76
2023/11/21 03:51:01;;;;;;;13.60;6.90;;;4.60;99.90;;;;;;5074775;28;20032;-76
2023/11/21 03:53:27;;;;;;;10.50;7.15;;;4.70;99.90;;;;;;5075993;28;20036;-76
2023/11/21 03:55:52;;;;;;;11.10;6.25;;;4.70;99.90;;;;;;5075266;28;20665;-76
2023/11/21 03:58:18;;;;;;;12.20;7.00;;;4.70;99.90;;;;;;5073768;28;20056;-76
2023/11/21 04:00:44;;;;;;;11.18;7.35;;;4.70;99.90;;;;;;5073910;28;20035;-76
2023/11/21 04:03:10;;;;;;;13.32;6.43;;;4.80;99.90;;;;;;5070533;28;20048;-76
2023/11/21 04:05:35;;;;;;;12.40;7.40;;;4.80;99.90;;;;;;5070105;28;20378;-76
2023/11/21 04:08:01;;;;;;;11.70;6.78;;;4.80;99.90;;;;;;5070753;28;20036;-76
2023/11/21 04:10:26;;;;;;;11.27;7.20;;;4.90;99.90;;;;;;5069669;28;20031;-76
2023/11/21 04:12:52;;;;;;;11.85;6.70;;;4.70;99.90;;;;;;5069841;28;20024;-77
2023/11/21 04:15:18;;;;;;;10.70;6.97;;;4.80;99.90;;;;;;5071265;28;20691;-76
2023/11/21 04:17:45;;;;;;;12.23;7.45;;;4.70;99.90;;;;;;5068012;28;20135;-77
2023/11/21 04:20:11;;;;;;;11.52;7.95;;;4.70;99.90;;;;;;5069230;28;20092;-76
2023/11/21 04:22:41;;;;;;;12.68;7.65;;;4.60;99.90;;;;;;5069560;28;20035;-76
2023/11/21 04:25:10;;;;;;;10.75;6.82;;;4.60;99.90;;;;;;5070375;28;20032;-77
2023/11/21 04:27:36;;;;;;;11.60;7.63;;;4.80;99.90;;;;;;5071114;28;20031;-76
2023/11/21 04:30:02;;;;;;;9.43;6.47;;;5.00;99.90;;;;;;5072233;28;20035;-77
2023/11/21 04:32:28;;;;;;;10.27;6.85;;;5.30;99.90;;;;;;5070594;28;20399;-76
2023/11/21 04:34:53;;;;;;;12.23;6.72;;;5.30;99.90;;;;;;5067947;28;20033;-76
2023/11/21 04:37:19;;;;;;;11.90;6.57;;;5.30;99.90;;;;;;5070198;28;20043;-76
2023/11/21 04:39:45;;;;;;;10.90;6.78;;;5.30;99.90;;;;;;5068899;28;20040;-77
2023/11/21 04:42:11;;;;;;;9.73;5.47;;;5.40;99.90;;;;;;5068064;28;20059;-76
2023/11/21 04:44:36;;;;;;;9.73;6.50;;;5.50;99.90;;;;;;5069015;28;20233;-77
2023/11/21 04:47:04;;;;;;;10.63;7.10;;;5.20;99.90;;;;;;5067900;28;20043;-77
2023/11/21 04:49:30;;;;;;;12.32;6.28;;;4.90;99.90;;;;;;5069072;28;20028;-77
2023/11/21 04:51:56;;;;;;;14.43;6.97;;;4.80;99.90;;;;;;5070039;28;20055;-77
2023/11/21 04:54:21;;;;;;;11.13;6.63;;;4.70;99.90;;;;;;5069891;28;20226;-77
2023/11/21 04:56:47;;;;;;;12.98;7.50;;;4.50;99.90;;;;;;5071315;28;20066;-76
2023/11/21 04:59:13;;;;;;;10.95;7.38;;;4.40;99.90;;;;;;5068815;28;20506;-76
2023/11/21 05:01:38;;;;;;;12.45;7.43;;;4.30;99.90;;;;;;5068001;28;20125;-76
2023/11/21 05:04:05;;;;;;;11.52;7.10;;;4.30;99.90;;;;;;5069440;28;20052;-78
2023/11/21 05:06:32;;;;;;;9.32;6.38;;;4.20;99.90;;;;;;5069453;28;20506;-77
2023/11/21 05:08:58;;;;;;;9.18;6.13;;;4.20;99.90;;;;;;5069963;28;20622;-77
2023/11/21 05:11:32;;;;;;;10.90;6.90;;;4.40;99.90;;;;;;5069379;28;20036;-78
2023/11/21 05:13:58;;;;;;;9.38;5.47;;;4.30;99.90;;;;;;5070326;28;20032;-77
2023/11/21 05:16:27;;;;;;;10.07;6.68;;;4.30;99.90;;;;;;5068024;28;20043;-77
2023/11/21 05:18:53;;;;;;;11.32;7.18;;;4.40;99.90;;;;;;5066718;28;21070;-77
2023/11/21 05:21:20;;;;;;;11.25;7.03;;;4.50;99.90;;;;;;5069077;28;20032;-76
2023/11/21 05:23:46;;;;;;;9.45;5.55;;;4.50;99.90;;;;;;5068251;28;20036;-76
2023/11/21 05:26:12;;;;;;;12.07;5.97;;;4.50;99.90;;;;;;5067819;28;21028;-76
2023/11/21 05:28:37;;;;;;;10.25;6.38;;;4.50;99.90;;;;;;5068588;28;20635;-77
2023/11/21 05:31:03;;;;;;;12.55;6.55;;;4.60;99.90;;;;;;5068759;28;20523;-77
2023/11/21 05:33:29;;;;;;;10.18;5.85;;;4.70;99.90;;;;;;5067269;28;20470;-76
2023/11/21 05:35:54;;;;;;;9.60;5.88;;;4.60;99.90;;;;;;5064838;28;20565;-78
2023/11/21 05:38:21;;;;;;;11.00;5.88;;;4.60;99.90;;;;;;5068391;28;20525;-76
2023/11/21 05:40:47;;;;;;;9.23;5.95;;;4.40;99.90;;;;;;5068044;28;20031;-76
2023/11/21 05:43:13;;;;;;;10.88;6.22;;;4.30;99.90;;;;;;5066371;28;20665;-77
2023/11/21 05:45:39;;;;;;;11.60;6.50;;;4.40;99.90;;;;;;5067885;28;20034;-76
2023/11/21 05:48:06;;;;;;;10.02;6.15;;;4.20;99.90;;;;;;5067013;28;20482;-76
2023/11/21 05:50:32;;;;;;;11.50;6.03;;;4.30;99.90;;;;;;5062897;28;20061;-78
2023/11/21 05:53:00;;;;;;;10.85;6.13;;;4.20;99.90;;;;;;5067106;28;20111;-76
2023/11/21 05:55:26;;;;;;;9.57;5.53;;;4.30;99.90;;;;;;5065615;28;20032;-77
2023/11/21 05:57:51;;;;;;;9.38;5.75;;;4.40;99.90;;;;;;5065757;28;20113;-76
2023/11/21 06:00:21;;;;;;;11.32;6.32;;;4.40;99.90;;;;;;5068171;28;20135;-76
2023/11/21 06:02:50;;;;;;;9.70;6.47;;;4.50;99.90;;;;;;5067993;28;20044;-76
2023/11/21 06:05:18;;;;;;;13.80;7.25;;;4.30;99.90;;;;;;5066833;28;20037;-78
2023/11/21 06:07:44;;;;;;;12.25;6.88;;;4.20;99.90;;;;;;5067375;28;20040;-77
2023/11/21 06:10:12;;;;;;;10.23;6.60;;;4.10;99.90;;;;;;5067885;28;20063;-77
2023/11/21 06:12:40;;;;;;;9.50;5.82;;;4.10;99.90;;;;;;5065360;28;20032;-77
2023/11/21 06:15:08;;;;;;;9.63;6.00;;;4.00;99.90;;;;;;5066537;28;20024;-79
2023/11/21 06:17:37;;;;;;;9.00;6.10;;;4.20;99.90;;;;;;5072245;28;20043;-76
2023/11/21 06:20:08;;;;;;;9.60;5.03;;;4.30;99.90;;;;;;5066760;28;20441;-75
2023/11/21 06:22:38;;;;;;;8.98;4.82;;;4.60;99.90;;;;;;5066000;28;20062;-77
2023/11/21 06:25:05;;;;;;;10.73;5.78;;;4.70;99.90;;;;;;5066696;28;20072;-77
2023/11/21 06:27:37;;;;;;;8.30;5.63;;;4.90;99.90;;;;;;5067977;28;20158;-78
2023/11/21 06:30:04;;;;;;;10.05;6.13;;;5.00;99.90;;;;;;5066678;28;20074;-76
2023/11/21 06:32:29;;;;;;;10.23;5.80;;;5.20;99.90;;;;;;5070375;28;20032;-78
2023/11/21 06:34:59;;;;;;;11.32;6.80;;;5.20;99.90;;;;;;5071010;28;20051;-75
2023/11/21 06:37:28;;;;;;;10.80;6.40;;;4.80;99.90;;;;;;5066364;28;20075;-75
2023/11/21 06:39:54;;;;;;;11.40;6.32;;;4.50;99.90;;;;;;5066299;28;20322;-74
2023/11/21 06:42:20;;;;;;;7.85;5.47;;;4.40;99.90;;;;;;5066289;28;20117;-75
2023/11/21 06:44:47;;;;;;;10.00;5.18;;;4.60;99.90;;;;;;5065929;28;20040;-75
2023/11/21 06:47:13;;;;;;;7.97;4.18;;;4.60;99.90;;;;;;5066456;28;20577;-75
2023/11/21 06:49:39;;;;;;;8.80;5.57;;;4.60;99.90;;;;;;5067810;28;20028;-75
2023/11/21 06:52:05;;;;;;;10.38;5.82;;;4.80;99.90;;;;;;5065861;28;20032;-75
2023/11/21 06:54:32;;;;;;;9.43;5.47;;;4.90;99.90;;;;;;5066459;28;20036;-75
2023/11/21 06:56:58;;;;;;;8.57;4.90;;;4.90;99.90;;;;;;5068046;28;20028;-75
2023/11/21 06:59:24;;;;;;;9.35;5.15;;;5.00;99.90;;;;;;5066244;28;20469;-76
2023/11/21 07:01:50;;;;;;;10.68;5.05;;;5.20;99.90;;;;;;5064884;28;20067;-75
2023/11/21 07:04:16;;;;;;;8.35;5.05;;;5.30;99.90;;;;;;5067713;28;20047;-75
2023/11/21 07:06:43;;;;;;;7.88;5.40;;;5.40;99.90;;;;;;5065992;28;21541;-76
2023/11/21 07:09:09;;;;;;;8.55;5.70;;;5.50;99.90;;;;;;5065332;28;20028;-76
2023/11/21 07:11:35;;;;;;;8.57;5.53;;;5.50;99.90;;;;;;5067188;28;20504;-76
2023/11/21 07:14:07;;;;;;;10.52;6.28;;;5.50;99.90;;;;;;5065851;28;20035;-75
2023/11/21 07:16:39;;;;;;;13.90;7.43;;;5.40;99.90;;;;;;5065887;28;20097;-75
2023/11/21 07:19:08;;;;;;;15.25;12.93;;;5.10;99.90;;;;;;5063027;28;20044;-76
2023/11/21 07:21:34;;;;;;;9.77;6.78;;;5.00;99.90;;;;;;5066805;28;20120;-76
2023/11/21 07:24:06;;;;;;;10.25;6.30;;;5.00;99.90;;;;;;5060194;28;21164;-76
2023/11/21 07:26:33;;;;;;;8.88;5.90;;;5.10;99.90;;;;;;5063210;28;20101;-75
2023/11/21 07:28:59;;;;;;;9.15;5.78;;;5.20;99.90;;;;;;5067692;28;20882;-75
2023/11/21 07:31:25;;;;;;;9.98;5.68;;;5.30;99.90;;;;;;5065256;28;20028;-75
2023/11/21 07:33:51;;;;;;;10.70;6.20;;;5.10;99.90;;;;;;5066996;28;20040;-75
2023/11/21 07:36:23;;;;;;;12.80;7.32;;;4.70;99.90;;;;;;5070746;28;20031;-78
2023/11/21 07:38:49;;;;;;;10.63;6.80;;;4.70;99.90;;;;;;5071610;28;20510;-76
2023/11/21 07:41:15;;;;;;;10.68;6.60;;;4.80;99.90;;;;;;5067635;28;20035;-76
2023/11/21 07:43:41;;;;;;;11.88;7.75;;;4.90;99.90;;;;;;5070311;28;20056;-76
2023/11/21 07:46:07;;;;;;;14.27;7.63;;;4.80;99.90;;;;;;5069429;28;20592;-76
2023/11/21 07:48:34;;;;;;;8.18;5.53;;;4.90;99.90;;;;;;5069531;28;20060;-77
2023/11/21 07:51:01;;;;;;;10.02;4.95;;;5.20;99.90;;;;;;5070834;28;20044;-76
2023/11/21 07:53:29;;;;;;;9.50;5.30;;;5.30;99.90;;;;;;5072136;28;20075;-77
2023/11/21 07:55:55;;;;;;;9.25;4.43;;;5.70;99.90;;;;;;5070500;28;20085;-78
2023/11/21 07:58:21;;;;;;;9.68;4.65;;;5.90;99.90;;;;;;5072131;28;20048;-76
2023/11/21 08:00:47;;;;;;;7.75;4.28;;;6.20;99.90;;;;;;5069734;28;20133;-79
2023/11/21 08:03:14;;;;;;;11.00;6.55;;;6.20;99.90;;;;;;5071716;28;20052;-77
2023/11/21 08:05:40;;;;;;;5.90;4.00;;;6.10;99.90;;;;;;5069819;28;20564;-76
2023/11/21 08:08:05;;;;;;;8.00;4.22;;;6.10;99.90;;;;;;5069720;28;20040;-76
2023/11/21 08:10:31;;;;;;;8.23;4.20;;;6.30;99.90;;;;;;5068252;28;20118;-77
2023/11/21 08:12:58;;;;;;;9.77;4.85;;;6.30;99.90;;;;;;5069100;28;20060;-77
2023/11/21 08:15:24;;;;;;;12.23;6.47;;;6.50;99.90;;;;;;5069217;28;20405;-77
2023/11/21 08:17:49;;;;;;;16.70;8.60;;;6.40;99.90;;;;;;5070054;28;20057;-76
2023/11/21 08:20:18;;;;;;;10.45;6.40;;;6.40;99.90;;;;;;5069653;28;20044;-77
2023/11/21 08:22:44;;;;;;;8.95;5.50;;;6.30;99.90;;;;;;5069485;28;20051;-77
2023/11/21 08:25:10;;;;;;;11.57;4.80;;;6.50;99.90;;;;;;5071901;28;20024;-77
2023/11/21 08:27:36;;;;;;;13.38;7.63;;;6.30;99.90;;;;;;5070822;28;20474;-77
2023/11/21 08:30:05;;;;;;;13.48;6.70;;;6.40;99.90;;;;;;5069771;28;20139;-76
2023/11/21 08:32:32;;;;;;;12.85;6.72;;;6.50;99.90;;;;;;5067267;28;20614;-77
2023/11/21 08:34:59;;;;;;;12.48;6.43;;;6.50;99.90;;;;;;5068747;28;20035;-78
2023/11/21 08:37:26;;;;;;;14.93;5.40;;;6.70;99.90;;;;;;5068674;28;20028;-76
2023/11/21 08:39:53;;;;;;;11.68;6.53;;;6.60;99.90;;;;;;5068802;28;20032;-78
2023/11/21 08:42:19;;;;;;;10.52;6.68;;;6.50;99.90;;;;;;5070163;28;20127;-77
2023/11/21 08:44:45;;;;;;;9.30;6.15;;;6.50;99.90;;;;;;5067197;28;20154;-76
2023/11/21 08:47:11;;;;;;;10.55;6.45;;;6.50;99.90;;;;;;5068945;28;20039;-76
2023/11/21 08:49:37;;;;;;;10.98;6.30;;;6.30;99.90;;;;;;5069305;28;20036;-77
2023/11/21 08:52:04;;;;;;;11.88;6.68;;;6.20;99.90;;;;;;5065620;28;20735;-76
2023/11/21 08:54:31;;;;;;;11.27;7.38;;;6.40;99.90;;;;;;5066836;28;20032;-75
2023/11/21 08:56:57;;;;;;;12.23;6.90;;;6.50;99.90;;;;;;5070040;28;20032;-75
2023/11/21 08:59:24;;;;;;;13.20;6.97;;;6.70;99.90;;;;;;5067654;28;20058;-73
2023/11/21 09:01:50;;;;;;;8.95;6.10;;;6.80;99.90;;;;;;5067529;28;20036;-75
2023/11/21 09:04:15;;;;;;;11.02;6.65;;;6.90;99.90;;;;;;5069994;28;20098;-76
2023/11/21 09:06:41;;;;;;;11.70;6.40;;;6.80;99.90;;;;;;5070503;28;20047;-76
2023/11/21 09:09:08;;;;;;;9.95;5.88;;;6.80;99.90;;;;;;5070906;28;20473;-76
2023/11/21 09:11:33;;;;;;;9.93;5.80;;;6.90;99.90;;;;;;5071393;28;20039;-76
2023/11/21 09:14:00;;;;;;;9.65;5.85;;;7.00;99.90;;;;;;5070865;28;20031;-76
2023/11/21 09:16:26;;;;;;;10.50;6.28;;;6.80;99.90;;;;;;5069895;28;20042;-75
2023/11/21 09:18:52;;;;;;;9.15;5.70;;;6.90;99.90;;;;;;5071453;28;20040;-76
2023/11/21 09:21:18;;;;;;;9.65;5.60;;;7.10;99.90;;;;;;5068958;28;20032;-76
2023/11/21 09:23:48;;;;;;;10.05;6.13;;;7.10;99.90;;;;;;5070719;28;20040;-76
2023/11/21 09:26:16;;;;;;;11.20;5.78;;;7.10;99.90;;;;;;5071895;28;20253;-76
2023/11/21 09:28:46;;;;;;;9.80;5.38;;;7.10;99.90;;;;;;5069955;28;20041;-76
2023/11/21 09:31:11;;;;;;;8.45;5.20;;;7.10;99.90;;;;;;5069450;28;20570;-76
2023/11/21 09:33:38;;;;;;;10.02;5.88;;;7.20;99.90;;;;;;5070462;28;20044;-76
2023/11/21 09:36:04;;;;;;;8.13;5.03;;;7.30;99.90;;;;;;5070941;28;20039;-78
2023/11/21 09:38:30;;;;;;;8.23;4.50;;;7.30;99.90;;;;;;5070491;28;20097;-77
2023/11/21 09:40:58;;;;;;;7.95;4.30;;;7.30;99.90;;;;;;5071027;28;20020;-79
2023/11/21 09:43:27;;;;;;;8.00;5.00;;;7.20;99.90;;;;;;5070230;28;22765;-76
2023/11/21 09:46:10;;;;;;;7.32;4.60;;;7.50;99.90;;;;;;5068868;28;20508;-76
2023/11/21 09:48:38;;;;;;;7.97;4.30;;;7.40;99.90;;;;;;5067879;28;20056;-76
2023/11/21 09:51:05;;;;;;;8.43;4.95;;;7.40;99.90;;;;;;5070022;28;20039;-75
2023/11/21 09:53:33;;;;;;;7.93;4.43;;;7.40;99.90;;;;;;5070011;28;20024;-76
2023/11/21 09:56:02;;;;;;;8.10;3.53;;;7.60;99.90;;;;;;5068496;28;20396;-75
2023/11/21 09:58:28;;;;;;;6.70;4.13;;;7.30;99.90;;;;;;5071265;28;20020;-76
2023/11/21 10:00:56;;;;;;;7.80;4.38;;;7.50;99.90;;;;;;5069114;28;20536;-76
2023/11/21 10:03:22;;;;;;;6.53;3.83;;;7.60;99.90;;;;;;5068554;28;20047;-76
2023/11/21 10:05:50;;;;;;;8.98;5.55;;;7.70;99.90;;;;;;5066685;28;20040;-76
2023/11/21 10:08:15;;;;;;;10.68;6.60;;;7.70;99.90;;;;;;5067172;28;20044;-76
2023/11/21 10:10:47;;;;;;;7.28;4.80;;;7.80;99.90;;;;;;5065518;28;20614;-76
2023/11/21 10:13:16;;;;;;;7.97;4.68;;;7.80;99.90;;;;;;5066866;28;20130;-76
2023/11/21 10:15:48;;;;;;;10.30;3.65;;;7.90;99.90;;;;;;5070539;28;20135;-75
2023/11/21 10:18:15;;;;;;;7.07;4.78;;;7.90;99.90;;;;;;5069061;28;20032;-76
2023/11/21 10:20:41;;;;;;;7.35;4.15;;;8.10;99.90;;;;;;5068274;28;20075;-75
2023/11/21 10:23:11;;;;;;;7.25;3.22;;;8.10;99.90;;;;;;5071585;28;20574;-75
2023/11/21 10:25:37;;;;;;;9.48;4.03;;;8.10;99.90;;;;;;5070754;28;20028;-76
2023/11/21 10:28:06;;;;;;;5.85;3.95;;;8.20;99.90;;;;;;5068464;28;20042;-76
2023/11/21 10:30:37;;;;;;;5.95;3.35;;;8.30;99.90;;;;;;5070271;28;20108;-75
2023/11/21 10:33:04;;;;;;;6.38;3.90;;;8.20;99.90;;;;;;5069210;28;21279;-76
2023/11/21 10:35:50;;;;;;;6.53;3.28;;;8.20;99.90;;;;;;5068729;28;20492;-75
2023/11/21 10:38:21;;;;;;;7.57;4.50;;;8.30;99.90;;;;;;5068637;28;20028;-75
2023/11/21 10:40:47;;;;;;;8.60;4.97;;;8.20;99.90;;;;;;5069012;28;20508;-76
2023/11/21 10:43:15;;;;;;;7.13;3.53;;;8.00;99.90;;;;;;5072602;28;20024;-75
2023/11/21 10:45:42;;;;;;;7.15;3.70;;;8.20;99.90;;;;;;5070595;28;20087;-76
2023/11/21 10:48:17;;;;;;;6.00;2.80;;;8.20;99.90;;;;;;5068309;28;20115;-75
2023/11/21 10:50:47;;;;;;;6.40;3.17;;;8.20;99.90;;;;;;5064346;28;20093;-76
2023/11/21 10:53:13;;;;;;;5.32;2.97;;;8.30;99.90;;;;;;5065784;28;20140;-76
2023/11/21 10:55:39;;;;;;;5.32;2.83;;;8.30;99.90;;;;;;5067086;28;20388;-76
2023/11/21 10:58:05;;;;;;;8.55;3.50;;;8.40;99.90;;;;;;5066280;28;20036;-76
2023/11/21 11:00:33;;;;;;;5.78;3.60;;;8.60;99.90;;;;;;5065456;28;20079;-76
2023/11/21 11:03:00;;;;;;;30.60;19.58;;;8.50;99.90;;;;;;5065941;28;20515;-76
2023/11/21 11:05:28;;;;;;;11.73;7.15;;;8.50;99.90;;;;;;5065797;28;20032;-76
2023/11/21 11:08:05;;;;;;;8.65;4.10;;;8.50;99.90;;;;;;5066777;28;20041;-76
2023/11/21 11:10:32;;;;;;;5.75;3.85;;;8.50;99.90;;;;;;5070835;28;20028;-75
2023/11/21 11:12:59;;;;;;;7.10;4.25;;;8.50;99.90;;;;;;5069611;28;20610;-76
2023/11/21 11:15:26;;;;;;;7.00;3.50;;;8.60;99.90;;;;;;5069430;28;20040;-76
2023/11/21 11:17:56;;;;;;;5.47;3.05;;;8.60;99.90;;;;;;5069064;28;20040;-76
2023/11/21 11:20:30;;;;;;;6.70;2.90;;;8.70;99.90;;;;;;5071311;28;20044;-77
2023/11/21 11:22:55;;;;;;;4.95;2.70;;;8.80;99.90;;;;;;5068187;28;20093;-76
2023/11/21 11:25:39;;;;;;;6.28;3.28;;;8.70;99.90;;;;;;5069261;28;20048;-76
2023/11/21 11:28:13;;;;;;;6.53;3.08;;;8.70;99.90;;;;;;5069789;28;20028;-76
2023/11/21 11:30:45;;;;;;;8.07;3.38;;;8.80;99.90;;;;;;5068697;28;20100;-76
2023/11/21 11:33:25;;;;;;;7.10;3.38;;;8.80;99.90;;;;;;5070345;28;20028;-76
2023/11/21 11:36:04;;;;;;;6.50;3.42;;;8.70;99.90;;;;;;5070420;28;20428;-76
2023/11/21 11:38:33;;;;;;;5.82;3.67;;;8.60;99.90;;;;;;5068662;28;20120;-76
2023/11/21 11:41:05;;;;;;;6.22;3.40;;;8.50;99.90;;;;;;5067952;28;20043;-76
2023/11/21 11:43:43;;;;;;;7.15;4.05;;;8.50;99.90;;;;;;5068832;28;20041;-76
2023/11/21 11:46:10;;;;;;;16.60;11.88;;;8.50;99.90;;;;;;5070439;28;20055;-76
2023/11/21 11:48:39;;;;;;;12.48;9.82;;;8.60;99.90;;;;;;5072992;28;20481;-76
2023/11/21 11:51:11;;;;;;;12.40;7.55;;;8.50;99.90;;;;;;5071588;28;20029;-76
2023/11/21 11:53:45;;;;;;;11.75;6.55;;;8.50;99.90;;;;;;5072197;28;20028;-76
2023/11/21 11:56:30;;;;;;;10.32;6.63;;;8.30;99.90;;;;;;5073924;28;21273;-76
2023/11/21 11:58:58;;;;;;;8.40;6.47;;;8.40;99.90;;;;;;5073173;28;20092;-76
2023/11/21 12:01:26;;;;;;;9.45;5.97;;;8.30;99.90;;;;;;5072577;28;20379;-75
2023/11/21 12:04:14;;;;;;;8.88;5.95;;;8.30;99.90;;;;;;5071169;28;20098;-77
2023/11/21 12:06:41;;;;;;;8.48;6.05;;;8.20;99.90;;;;;;5071796;28;20412;-75
2023/11/21 12:09:18;;;;;;;12.43;6.40;;;8.30;99.90;;;;;;5071962;28;20035;-75
2023/11/21 12:11:44;;;;;;;10.90;6.03;;;8.50;99.90;;;;;;5073126;28;20438;-75
2023/11/21 12:14:10;;;;;;;9.27;5.80;;;8.60;99.90;;;;;;5069583;28;20032;-75
2023/11/21 12:16:37;;;;;;;8.80;5.50;;;8.50;99.90;;;;;;5070639;28;20515;-75
2023/11/21 12:19:03;;;;;;;8.90;5.13;;;8.50;99.90;;;;;;5072523;28;20044;-76
2023/11/21 12:21:30;;;;;;;12.43;6.07;;;8.50;99.90;;;;;;5071898;28;20038;-76
2023/11/21 12:23:55;;;;;;;11.68;5.50;;;8.30;99.90;;;;;;5071500;28;20032;-75
2023/11/21 12:26:24;;;;;;;7.88;5.22;;;8.40;99.90;;;;;;5073730;28;20032;-75
2023/11/21 12:28:55;;;;;;;9.68;5.25;;;8.40;99.90;;;;;;5071727;28;20047;-75
2023/11/21 12:31:24;;;;;;;10.13;5.93;;;8.30;99.90;;;;;;5070883;28;20059;-75
2023/11/21 12:33:50;;;;;;;13.95;9.80;;;8.30;99.90;;;;;;5072159;28;20578;-76
2023/11/21 12:36:16;;;;;;;10.70;7.15;;;8.30;99.90;;;;;;5072672;28;20111;-75
2023/11/21 12:38:42;;;;;;;9.48;6.50;;;8.40;99.90;;;;;;5070850;28;20079;-75
2023/11/21 12:41:10;;;;;;;12.80;6.15;;;8.50;99.90;;;;;;5071450;28;20032;-75
2023/11/21 12:43:36;;;;;;;12.57;6.47;;;8.50;99.90;;;;;;5071005;28;20040;-76
2023/11/21 12:46:06;;;;;;;11.05;6.70;;;8.50;99.90;;;;;;5070574;28;20043;-76
2023/11/21 12:48:32;;;;;;;9.85;5.60;;;8.60;99.90;;;;;;5072204;28;20081;-75
2023/11/21 12:51:00;;;;;;;14.90;9.68;;;8.70;99.90;;;;;;5071275;28;20036;-75